Galilee, Rhode Island
Current Conditions -  °F | °C
As of 7:53 AM on Tuesday 21 Oct 2014 (Local Time) from KUUU Reporting Station
Scattered Clouds Scattered Clouds  
Wind Chill: 57°   Ceiling: Unl
Heat Index: 57°   Visibility: 10mi
Dew Point: 50°   Wind: 0mph
Humidity: 77%   Direction: NA
Pressure: 29.95"   Gusts: NA
Location:  41.4075°N, 71.4775°W
Report Text: KUUU 211153Z AUTO 00000KT 10SM FEW016 SCT075 14/10 A2995 RMK AO2 SLP140 60001 7//// T01390100 10156 20122 55004
Loading
Personal Weather Stations






























Interactive Weather Map
Tropical Storm Tracking
New forecast layout! Learn more

10-Day Weather Forecast

Advertisements
Track Severe Weather on mobile